createdAt,value
2023-05-22T00:01:37.641Z,11.95
2023-05-22T00:05:35.610Z,11.88
2023-05-22T00:09:53.574Z,11.79
2023-05-22T00:13:51.555Z,11.69
2023-05-22T00:17:49.635Z,11.57
2023-05-22T00:21:48.611Z,11.48
2023-05-22T00:25:46.684Z,11.39
2023-05-22T00:29:44.523Z,11.32
2023-05-22T00:33:42.555Z,11.23
2023-05-22T00:38:05.541Z,11.11
2023-05-22T00:42:03.556Z,10.99
2023-05-22T00:46:01.531Z,10.83
2023-05-22T00:50:00.556Z,10.71
2023-05-22T00:53:58.588Z,10.62
2023-05-22T00:57:56.579Z,10.54
2023-05-22T01:01:54.563Z,10.47
2023-05-22T01:05:53.533Z,10.39
2023-05-22T01:09:51.514Z,10.32
2023-05-22T01:14:17.519Z,10.23
2023-05-22T01:18:38.491Z,10.11
2023-05-22T01:22:50.515Z,10.01
2023-05-22T01:27:24.524Z,9.88
2023-05-22T01:31:31.534Z,9.77
2023-05-22T01:35:31.479Z,9.71
2023-05-22T01:39:30.468Z,9.63
2023-05-22T01:43:29.532Z,9.59
2023-05-22T01:47:27.483Z,9.52
2023-05-22T01:51:46.473Z,9.44
2023-05-22T01:56:07.492Z,9.37
2023-05-22T02:00:18.466Z,9.27
2023-05-22T02:04:16.458Z,9.20
2023-05-22T02:08:15.447Z,9.13
2023-05-22T02:12:14.474Z,9.08
2023-05-22T02:16:12.557Z,9.04
2023-05-22T02:20:11.469Z,9.00
2023-05-22T02:24:09.440Z,8.91
2023-05-22T02:28:07.466Z,8.87
2023-05-22T02:32:05.402Z,8.89
2023-05-22T02:36:03.508Z,8.94
2023-05-22T02:40:01.402Z,9.00
2023-05-22T02:43:59.442Z,9.04
2023-05-22T02:47:57.484Z,9.09
2023-05-22T02:51:56.378Z,9.15
2023-05-22T02:55:55.375Z,9.23
2023-05-22T02:59:53.397Z,9.27
2023-05-22T03:03:51.418Z,9.35
2023-05-22T03:07:49.394Z,9.46
2023-05-22T03:11:47.358Z,9.57
2023-05-22T03:15:45.377Z,10.20
2023-05-22T03:19:43.391Z,11.19
2023-05-22T03:23:41.342Z,12.00
2023-05-22T03:27:39.415Z,12.64
2023-05-22T03:31:39.377Z,13.50
2023-05-22T03:35:38.376Z,14.27
2023-05-22T03:39:36.425Z,15.13
2023-05-22T03:43:50.320Z,16.03
2023-05-22T03:47:48.399Z,16.75
2023-05-22T03:51:46.311Z,16.97
2023-05-22T03:55:44.362Z,17.37
2023-05-22T03:59:43.368Z,17.89
2023-05-22T04:03:41.390Z,18.32
2023-05-22T04:07:42.314Z,18.97
2023-05-22T04:11:40.349Z,19.80
2023-05-22T04:15:40.321Z,20.58
2023-05-22T04:19:38.354Z,21.17
2023-05-22T04:23:36.280Z,22.01
2023-05-22T04:27:36.348Z,22.56
2023-05-22T04:31:34.387Z,23.04
2023-05-22T04:35:32.332Z,23.59
2023-05-22T04:39:32.261Z,23.94
2023-05-22T04:43:33.261Z,24.42
2023-05-22T04:47:31.286Z,24.77
2023-05-22T04:51:30.310Z,25.17
2023-05-22T04:55:29.247Z,25.24
2023-05-22T04:59:30.280Z,25.03
2023-05-22T05:03:28.303Z,25.08
2023-05-22T05:07:26.312Z,25.05
2023-05-22T05:11:24.269Z,25.01
2023-05-22T05:15:23.313Z,24.81
2023-05-22T05:19:22.401Z,24.34
2023-05-22T05:23:20.313Z,23.70
2023-05-22T05:27:18.191Z,23.12
2023-05-22T05:31:16.243Z,22.50
2023-05-22T05:35:34.225Z,22.04
2023-05-22T05:39:34.265Z,21.55
2023-05-22T05:43:33.267Z,21.17
2023-05-22T05:47:33.261Z,20.80
2023-05-22T05:51:11.109Z,20.64
2023-05-22T05:54:38.814Z,20.46
2023-05-22T05:58:10.299Z,20.43
2023-05-22T06:01:39.939Z,20.31
2023-05-22T06:05:09.012Z,20.23
2023-05-22T06:08:34.767Z,20.30
2023-05-22T06:11:59.000Z,20.29
2023-05-22T06:15:22.964Z,20.23
2023-05-22T06:18:47.475Z,20.19
2023-05-22T06:22:12.098Z,20.11
2023-05-22T06:25:39.740Z,20.13
2023-05-22T06:29:04.097Z,20.18
2023-05-22T06:32:29.525Z,20.11
2023-05-22T06:35:53.781Z,20.20
2023-05-22T06:39:22.280Z,20.19
2023-05-22T06:43:03.903Z,20.22
2023-05-22T06:46:38.363Z,20.39
2023-05-22T06:50:03.062Z,20.61
2023-05-22T06:53:27.292Z,20.65
2023-05-22T06:56:51.864Z,20.53
2023-05-22T07:03:52.628Z,20.23
2023-05-22T07:07:29.731Z,20.14
2023-05-22T07:10:53.900Z,20.08
2023-05-22T07:14:18.214Z,20.16
2023-05-22T07:17:43.289Z,20.29
2023-05-22T07:21:07.534Z,20.27
2023-05-22T07:24:32.274Z,20.34
2023-05-22T07:27:58.458Z,20.26
2023-05-22T07:31:22.689Z,20.09
2023-05-22T07:34:53.358Z,20.01
2023-05-22T07:38:17.317Z,20.10
2023-05-22T07:41:50.381Z,20.23
2023-05-22T07:45:15.010Z,20.33
2023-05-22T07:48:39.180Z,20.39
2023-05-22T07:52:03.858Z,20.42
2023-05-22T07:55:27.849Z,20.48
2023-05-22T07:58:52.790Z,20.45
2023-05-22T08:02:18.935Z,20.37
2023-05-22T08:05:43.221Z,20.32
2023-05-22T08:09:07.119Z,20.35
2023-05-22T08:12:31.280Z,20.50
2023-05-22T08:16:00.711Z,20.60
2023-05-22T08:19:25.329Z,20.67
2023-05-22T08:22:49.519Z,20.84
2023-05-22T08:26:13.747Z,20.94
2023-05-22T08:29:37.606Z,20.82
2023-05-22T08:33:01.583Z,20.87
2023-05-22T08:36:25.516Z,20.92
2023-05-22T08:39:49.453Z,21.02
2023-05-22T08:43:13.432Z,20.98
2023-05-22T08:46:41.686Z,20.91
2023-05-22T08:50:06.066Z,20.71
2023-05-22T08:53:32.125Z,20.81
2023-05-22T08:56:57.679Z,20.74
2023-05-22T09:00:22.659Z,20.83
2023-05-22T09:03:49.379Z,20.81
2023-05-22T09:07:14.638Z,20.76
2023-05-22T09:10:38.661Z,20.91
2023-05-22T09:14:09.678Z,21.11
2023-05-22T09:17:33.643Z,21.30
2023-05-22T09:21:04.965Z,21.32
2023-05-22T09:24:31.134Z,21.50
2023-05-22T09:27:55.027Z,21.65
2023-05-22T09:31:18.881Z,21.76
2023-05-22T09:34:43.070Z,21.66
2023-05-22T09:38:07.401Z,21.51
2023-05-22T09:41:36.239Z,21.56
2023-05-22T09:45:07.519Z,21.51
2023-05-22T09:48:40.283Z,21.68
2023-05-22T09:52:07.390Z,21.84
2023-05-22T09:55:32.338Z,21.76
2023-05-22T09:58:56.236Z,21.64
2023-05-22T10:02:23.618Z,21.54
2023-05-22T10:05:51.303Z,21.71
2023-05-22T10:09:19.624Z,21.79
2023-05-22T10:12:46.642Z,21.70
2023-05-22T10:16:12.204Z,21.56
2023-05-22T10:19:39.439Z,21.60
2023-05-22T10:23:07.114Z,21.58
2023-05-22T10:26:31.414Z,21.74
2023-05-22T10:30:07.201Z,21.88
2023-05-22T10:33:39.960Z,21.86
2023-05-22T10:37:22.198Z,21.70
2023-05-22T10:40:47.559Z,21.71
2023-05-22T10:44:11.588Z,21.70
2023-05-22T10:47:35.751Z,21.56
2023-05-22T10:51:00.782Z,21.67
2023-05-22T10:55:01.289Z,21.96
2023-05-22T10:58:32.142Z,22.36
2023-05-22T11:02:02.216Z,22.57
2023-05-22T11:05:34.564Z,22.54
2023-05-22T11:08:58.819Z,22.78
2023-05-22T11:12:31.227Z,22.85
2023-05-22T11:15:57.850Z,22.89
2023-05-22T11:19:24.116Z,22.75
2023-05-22T11:22:57.151Z,22.60
2023-05-22T11:26:25.590Z,22.60
2023-05-22T11:29:52.098Z,22.74
2023-05-22T11:33:16.084Z,22.51
2023-05-22T11:36:40.069Z,22.41
2023-05-22T11:40:06.652Z,22.61
2023-05-22T11:43:33.293Z,22.78
2023-05-22T11:46:57.265Z,22.90
2023-05-22T11:50:33.587Z,22.82
2023-05-22T11:54:06.317Z,22.97
2023-05-22T11:57:31.548Z,23.07
2023-05-22T12:01:02.740Z,23.05
2023-05-22T12:04:26.660Z,23.06
2023-05-22T12:07:51.111Z,23.27
2023-05-22T12:11:15.329Z,23.66
2023-05-22T12:14:39.665Z,24.04
2023-05-22T12:18:03.474Z,24.42
2023-05-22T12:21:28.088Z,24.64
2023-05-22T12:24:53.484Z,24.90
2023-05-22T12:28:17.378Z,25.12
2023-05-22T12:31:41.351Z,24.97
2023-05-22T12:35:05.551Z,25.14
2023-05-22T12:38:34.038Z,24.95
2023-05-22T12:41:59.278Z,25.02
2023-05-22T12:45:23.197Z,24.79
2023-05-22T12:48:47.242Z,24.42
2023-05-22T12:52:11.078Z,24.21
2023-05-22T12:55:35.582Z,24.18
2023-05-22T12:59:00.157Z,24.46
2023-05-22T13:02:24.425Z,24.72
2023-05-22T13:05:48.634Z,24.78
2023-05-22T13:09:16.965Z,24.88
2023-05-22T13:12:41.888Z,24.79
2023-05-22T13:16:06.119Z,24.54
2023-05-22T13:19:30.022Z,24.31
2023-05-22T13:22:53.997Z,24.18
2023-05-22T13:26:18.031Z,24.16
2023-05-22T13:29:41.903Z,24.09
2023-05-22T13:33:25.817Z,23.91
2023-05-22T13:37:23.925Z,23.74
2023-05-22T13:41:23.805Z,23.67
2023-05-22T13:45:21.897Z,23.82
2023-05-22T13:49:19.781Z,23.86
2023-05-22T13:53:24.839Z,23.57
2023-05-22T13:57:22.777Z,23.38
2023-05-22T14:01:20.845Z,23.30
2023-05-22T14:05:18.798Z,23.25
2023-05-22T14:09:16.774Z,23.23
2023-05-22T14:13:14.777Z,23.30
2023-05-22T14:17:12.937Z,23.46
2023-05-22T14:21:10.775Z,23.70
2023-05-22T14:25:08.767Z,23.93
2023-05-22T14:29:06.767Z,24.07
2023-05-22T14:33:04.869Z,24.03
2023-05-22T14:37:02.814Z,24.22
2023-05-22T14:41:00.807Z,24.39
2023-05-22T14:44:58.748Z,24.51
2023-05-22T14:48:56.722Z,24.50
2023-05-22T14:52:54.748Z,24.10
2023-05-22T14:56:52.769Z,24.08
2023-05-22T15:00:50.902Z,23.93
2023-05-22T15:04:48.829Z,24.23
2023-05-22T15:08:46.734Z,24.85
2023-05-22T15:12:44.736Z,24.98
2023-05-22T15:16:42.828Z,24.99
2023-05-22T15:20:41.748Z,25.12
2023-05-22T15:24:39.675Z,25.06
2023-05-22T15:28:37.813Z,25.26
2023-05-22T15:32:36.699Z,25.74
2023-05-22T15:36:34.787Z,25.93
2023-05-22T15:40:32.696Z,25.64
2023-05-22T15:44:30.775Z,25.46
2023-05-22T15:48:28.709Z,25.34
2023-05-22T15:52:27.777Z,25.16
2023-05-22T15:56:25.703Z,24.90
2023-05-22T16:00:23.690Z,24.50
2023-05-22T16:04:21.690Z,23.97
2023-05-22T16:08:20.700Z,23.66
2023-05-22T16:12:18.661Z,23.37
2023-05-22T16:16:16.705Z,23.22
2023-05-22T16:20:14.664Z,22.96
2023-05-22T16:24:13.724Z,22.74
2023-05-22T16:28:11.716Z,22.55
2023-05-22T16:32:10.689Z,22.38
2023-05-22T16:36:08.642Z,22.28
2023-05-22T16:40:06.686Z,22.14
2023-05-22T16:44:04.653Z,22.00
2023-05-22T16:48:02.767Z,21.81
2023-05-22T16:52:00.712Z,21.67
2023-05-22T16:55:58.666Z,21.45
2023-05-22T16:59:57.892Z,21.31
2023-05-22T17:03:55.714Z,21.18
2023-05-22T17:07:53.630Z,21.03
2023-05-22T17:11:51.638Z,20.92
2023-05-22T17:15:49.752Z,20.77
2023-05-22T17:19:47.646Z,20.67
2023-05-22T17:23:45.639Z,20.62
2023-05-22T17:27:43.765Z,20.55
2023-05-22T17:31:41.658Z,20.45
2023-05-22T17:35:39.599Z,20.36
2023-05-22T17:39:37.612Z,20.30
2023-05-22T17:43:35.579Z,20.22
2023-05-22T17:47:33.648Z,20.11
2023-05-22T17:51:31.607Z,19.98
2023-05-22T17:55:29.621Z,19.84
2023-05-22T17:59:27.665Z,19.74
2023-05-22T18:03:26.682Z,19.62
2023-05-22T18:07:25.612Z,19.49
2023-05-22T18:11:23.560Z,19.37
2023-05-22T18:15:21.588Z,19.23
2023-05-22T18:19:19.694Z,19.05
2023-05-22T18:23:17.579Z,18.87
2023-05-22T18:27:15.558Z,18.69
2023-05-22T18:31:14.652Z,18.52
2023-05-22T18:35:12.544Z,18.41
2023-05-22T18:39:10.554Z,18.28
2023-05-22T18:43:08.560Z,18.13
2023-05-22T18:47:06.660Z,17.97
2023-05-22T18:51:04.556Z,17.77
2023-05-22T18:55:02.626Z,17.55
2023-05-22T18:59:01.517Z,17.34
2023-05-22T19:02:59.598Z,17.14
2023-05-22T19:07:00.513Z,16.92
2023-05-22T19:10:58.572Z,16.71
2023-05-22T19:14:56.501Z,16.52
2023-05-22T19:18:55.556Z,16.32
2023-05-22T19:22:53.504Z,16.16
2023-05-22T19:26:51.537Z,16.05
2023-05-22T19:30:50.575Z,15.92
2023-05-22T19:34:48.498Z,15.77
2023-05-22T19:38:47.463Z,15.59
2023-05-22T19:42:46.530Z,15.41
2023-05-22T19:46:44.518Z,15.26
2023-05-22T19:50:42.767Z,15.08
2023-05-22T19:54:40.536Z,14.93
2023-05-22T19:58:38.517Z,14.80
2023-05-22T20:02:36.612Z,14.65
2023-05-22T20:06:37.507Z,14.51
2023-05-22T20:10:35.431Z,14.37
2023-05-22T20:14:33.472Z,14.24
2023-05-22T20:18:31.471Z,14.12
2023-05-22T20:22:29.444Z,14.05
2023-05-22T20:26:28.399Z,13.99
2023-05-22T20:30:26.465Z,13.91
2023-05-22T20:34:24.455Z,13.82
2023-05-22T20:38:22.484Z,13.78
2023-05-22T20:42:21.405Z,13.66
2023-05-22T20:46:20.422Z,13.59
2023-05-22T20:50:18.465Z,13.52
2023-05-22T20:54:16.465Z,13.42
2023-05-22T20:58:14.364Z,13.31
2023-05-22T21:02:12.485Z,13.22
2023-05-22T21:06:10.383Z,13.14
2023-05-22T21:10:08.398Z,13.04
2023-05-22T21:14:06.387Z,12.94
2023-05-22T21:18:04.417Z,12.85
2023-05-22T21:22:02.382Z,12.79
2023-05-22T21:26:00.385Z,12.72
2023-05-22T21:29:58.420Z,12.64
2023-05-22T21:33:56.443Z,12.58
2023-05-22T21:37:54.426Z,12.48
2023-05-22T21:41:52.414Z,12.40
2023-05-22T21:45:50.344Z,12.31
2023-05-22T21:49:48.384Z,12.19
2023-05-22T21:53:46.384Z,12.07
2023-05-22T21:57:44.372Z,12.05
2023-05-22T22:01:42.353Z,11.96
2023-05-22T22:05:40.425Z,11.90
2023-05-22T22:09:38.328Z,11.84
2023-05-22T22:13:36.349Z,11.78
2023-05-22T22:17:34.322Z,11.70
2023-05-22T22:21:32.304Z,11.66
2023-05-22T22:25:30.323Z,11.59
2023-05-22T22:29:28.330Z,11.58
2023-05-22T22:33:26.276Z,11.59
2023-05-22T22:37:24.324Z,11.52
2023-05-22T22:41:22.283Z,11.46
2023-05-22T22:45:40.528Z,11.41
2023-05-22T22:49:38.305Z,11.38
2023-05-22T22:53:36.314Z,11.33
2023-05-22T22:57:34.276Z,11.34
2023-05-22T23:01:32.303Z,11.29
2023-05-22T23:05:30.325Z,11.25
2023-05-22T23:09:28.305Z,11.24
2023-05-22T23:13:26.290Z,11.26
2023-05-22T23:17:24.277Z,11.30
2023-05-22T23:21:22.250Z,11.29
2023-05-22T23:25:20.256Z,11.29
2023-05-22T23:29:18.227Z,11.25
2023-05-22T23:33:16.246Z,11.17
2023-05-22T23:37:14.241Z,11.06
2023-05-22T23:41:12.257Z,10.97
2023-05-22T23:45:10.196Z,10.91
2023-05-22T23:49:08.225Z,10.87
2023-05-22T23:53:06.224Z,10.83
2023-05-22T23:57:04.254Z,10.78
